Time;durP1;ratioP1;P1;durP2;ratioP2;P2;SDS_P1;SDS_P2;PMS_P1;PMS_P2;Temp;Humidity;BMP_temperature;BMP_pressure;BME280_temperature;BME280_humidity;BME280_pressure;Samples;Min_cycle;Max_cycle;Signal;HPM_P1;HPM_P2
2023/04/09 00:00:38;;;;;;;96.22;45.92;;;8.00;99.90;;;;;;5065918;28;20052;-63
2023/04/09 00:03:04;;;;;;;100.30;47.63;;;8.00;99.90;;;;;;5066883;28;20068;-64
2023/04/09 00:05:30;;;;;;;101.03;46.55;;;7.90;99.90;;;;;;5066176;28;20083;-64
2023/04/09 00:07:56;;;;;;;95.47;44.22;;;7.90;99.90;;;;;;5065988;28;20186;-64
2023/04/09 00:10:22;;;;;;;97.20;44.60;;;7.90;99.90;;;;;;5083383;28;20037;-62
2023/04/09 00:12:48;;;;;;;78.10;39.03;;;7.90;99.90;;;;;;5067435;28;20605;-65
2023/04/09 00:15:14;;;;;;;76.07;37.58;;;7.90;99.90;;;;;;5065924;28;20373;-65
2023/04/09 00:17:40;;;;;;;67.00;34.92;;;7.90;99.90;;;;;;5049301;28;20059;-63
2023/04/09 00:20:06;;;;;;;70.70;34.25;;;7.80;99.90;;;;;;5049953;28;20033;-64
2023/04/09 00:22:32;;;;;;;67.28;34.65;;;7.80;99.90;;;;;;5067560;28;20072;-63
2023/04/09 00:24:58;;;;;;;68.53;34.28;;;7.80;99.90;;;;;;5087639;28;20091;-64
2023/04/09 00:27:24;;;;;;;60.22;32.63;;;7.80;99.90;;;;;;5085845;28;20032;-64
2023/04/09 00:29:53;;;;;;;65.90;34.42;;;7.80;99.90;;;;;;5067315;28;20102;-64
2023/04/09 00:32:19;;;;;;;65.07;32.83;;;7.80;99.90;;;;;;5066856;28;20129;-64
2023/04/09 00:34:45;;;;;;;67.03;33.53;;;7.80;99.90;;;;;;5049288;28;20055;-64
2023/04/09 00:37:14;;;;;;;65.32;35.15;;;7.80;99.90;;;;;;5066467;28;20314;-65
2023/04/09 00:39:40;;;;;;;62.60;32.67;;;7.80;99.90;;;;;;5087325;28;20071;-65
2023/04/09 00:42:05;;;;;;;65.88;33.13;;;7.80;99.90;;;;;;5085834;28;20376;-65
2023/04/09 00:44:31;;;;;;;63.42;32.63;;;7.80;99.90;;;;;;5062359;28;20063;-64
2023/04/09 00:47:00;;;;;;;61.35;32.17;;;7.80;99.90;;;;;;5066340;28;20033;-64
2023/04/09 00:49:26;;;;;;;52.50;29.52;;;7.80;99.90;;;;;;5066886;28;20381;-64
2023/04/09 00:51:52;;;;;;;51.75;29.33;;;7.80;99.90;;;;;;5098605;28;20055;-64
2023/04/09 00:54:18;;;;;;;52.30;27.15;;;7.80;99.90;;;;;;5048901;28;20044;-65
2023/04/09 00:56:45;;;;;;;52.15;27.30;;;7.80;99.90;;;;;;5065431;28;20416;-65
2023/04/09 00:59:20;;;;;;;50.97;25.88;;;7.80;99.90;;;;;;5065299;28;20276;-64
2023/04/09 01:01:46;;;;;;;45.25;25.63;;;7.80;99.90;;;;;;5072271;28;20036;-64
2023/04/09 01:04:12;;;;;;;45.25;24.83;;;7.80;99.90;;;;;;5085686;28;20153;-64
2023/04/09 01:06:54;;;;;;;54.80;26.90;;;7.80;99.90;;;;;;5068417;28;20044;-65
2023/04/09 01:09:27;;;;;;;50.63;25.13;;;7.80;99.90;;;;;;5066754;28;20047;-64
2023/04/09 01:12:05;;;;;;;48.38;25.63;;;7.80;99.90;;;;;;5065055;28;20036;-65
2023/04/09 01:14:46;;;;;;;45.58;25.90;;;7.80;99.90;;;;;;5081978;28;20455;-65
2023/04/09 01:17:21;;;;;;;51.80;27.70;;;7.80;99.90;;;;;;5064349;28;20038;-65
2023/04/09 01:20:10;;;;;;;47.17;25.85;;;7.80;99.90;;;;;;5064756;28;20044;-65
2023/04/09 01:22:55;;;;;;;53.53;28.30;;;7.70;99.90;;;;;;5065678;28;20040;-65
2023/04/09 01:25:44;;;;;;;56.58;28.10;;;7.70;99.90;;;;;;5084919;28;20052;-64
2023/04/09 01:28:34;;;;;;;58.78;28.83;;;7.70;99.90;;;;;;5067954;28;20076;-64
2023/04/09 01:31:20;;;;;;;57.67;28.48;;;7.70;99.90;;;;;;5048328;28;20468;-64
2023/04/09 01:33:46;;;;;;;56.42;30.13;;;7.70;99.90;;;;;;5073774;28;20482;-65
2023/04/09 01:36:16;;;;;;;60.38;31.05;;;7.70;99.90;;;;;;5084503;28;20044;-64
2023/04/09 01:38:44;;;;;;;61.67;30.30;;;7.70;99.90;;;;;;5066738;28;20172;-65
2023/04/09 01:41:14;;;;;;;58.13;30.73;;;7.70;99.90;;;;;;5087180;28;20054;-64
2023/04/09 01:43:41;;;;;;;58.63;30.45;;;7.60;99.90;;;;;;5084921;28;20130;-65
2023/04/09 01:46:08;;;;;;;57.13;31.23;;;7.60;99.90;;;;;;5072370;28;20083;-64
2023/04/09 01:48:34;;;;;;;64.05;31.17;;;7.60;99.90;;;;;;5065726;28;20133;-65
2023/04/09 01:51:01;;;;;;;61.70;32.22;;;7.60;99.90;;;;;;5064378;28;20086;-64
2023/04/09 01:53:27;;;;;;;63.53;31.60;;;7.60;99.90;;;;;;5065325;28;20043;-63
2023/04/09 01:55:58;;;;;;;64.90;32.00;;;7.60;99.90;;;;;;5065654;28;20076;-64
2023/04/09 01:58:25;;;;;;;61.38;33.63;;;7.60;99.90;;;;;;5065817;28;20093;-64
2023/04/09 02:00:55;;;;;;;63.28;32.50;;;7.50;99.90;;;;;;5080564;28;20110;-65
2023/04/09 02:03:35;;;;;;;62.38;32.78;;;7.50;99.90;;;;;;5082220;28;20082;-63
2023/04/09 02:06:07;;;;;;;64.97;32.72;;;7.50;99.90;;;;;;5085484;28;20056;-64
2023/04/09 02:08:35;;;;;;;60.60;32.58;;;7.50;99.90;;;;;;5063360;28;20531;-64
2023/04/09 02:11:05;;;;;;;69.25;32.17;;;7.40;99.90;;;;;;5065487;28;20047;-64
2023/04/09 02:13:33;;;;;;;66.80;33.28;;;7.50;99.90;;;;;;5065436;28;20051;-64
2023/04/09 02:16:00;;;;;;;65.80;31.98;;;7.40;99.90;;;;;;5080526;28;20048;-64
2023/04/09 02:18:30;;;;;;;63.13;33.22;;;7.40;99.90;;;;;;5065091;28;20275;-64
2023/04/09 02:20:57;;;;;;;67.95;33.22;;;7.40;99.90;;;;;;5063891;28;20066;-64
2023/04/09 02:23:23;;;;;;;67.57;33.47;;;7.40;99.90;;;;;;5047856;28;20422;-63
2023/04/09 02:25:50;;;;;;;67.78;33.67;;;7.50;99.90;;;;;;5047433;28;20467;-64
2023/04/09 02:28:15;;;;;;;60.33;33.35;;;7.40;99.90;;;;;;5062823;28;20033;-64
2023/04/09 02:30:41;;;;;;;67.35;33.97;;;7.40;99.90;;;;;;5065359;28;20329;-64
2023/04/09 02:33:07;;;;;;;63.47;32.47;;;7.40;99.90;;;;;;5081921;28;20033;-64
2023/04/09 02:35:33;;;;;;;64.88;32.35;;;7.40;99.90;;;;;;5047070;28;20450;-65
2023/04/09 02:37:59;;;;;;;65.80;32.88;;;7.40;99.90;;;;;;5063517;28;20101;-64
2023/04/09 02:40:28;;;;;;;68.53;32.88;;;7.40;99.90;;;;;;5064044;28;20503;-64
2023/04/09 02:42:54;;;;;;;65.50;33.40;;;7.40;99.90;;;;;;5080674;28;20430;-64
2023/04/09 02:45:20;;;;;;;64.82;34.55;;;7.40;99.90;;;;;;5065184;28;20048;-64
2023/04/09 02:47:46;;;;;;;74.63;34.03;;;7.40;99.90;;;;;;5057832;28;20559;-64
2023/04/09 02:50:14;;;;;;;73.72;34.30;;;7.40;99.90;;;;;;5063724;28;20714;-64
2023/04/09 02:52:40;;;;;;;73.57;34.80;;;7.30;99.90;;;;;;5065014;28;20321;-64
2023/04/09 02:55:07;;;;;;;68.07;33.97;;;7.30;99.90;;;;;;5063663;28;20491;-65
2023/04/09 02:57:32;;;;;;;70.13;35.58;;;7.30;99.90;;;;;;5065130;28;20574;-64
2023/04/09 02:59:58;;;;;;;79.72;35.95;;;7.30;99.90;;;;;;5080230;28;20057;-65
2023/04/09 03:02:24;;;;;;;72.40;35.47;;;7.30;99.90;;;;;;5063780;28;20056;-64
2023/04/09 03:04:51;;;;;;;82.22;35.90;;;7.30;99.90;;;;;;5063856;28;20101;-64
2023/04/09 03:07:17;;;;;;;72.45;34.42;;;7.30;99.90;;;;;;5063783;28;20065;-65
2023/04/09 03:09:43;;;;;;;73.97;36.70;;;7.30;99.90;;;;;;5062820;28;20084;-64
2023/04/09 03:12:13;;;;;;;80.22;37.25;;;7.20;99.90;;;;;;5063502;28;20033;-65
2023/04/09 03:14:39;;;;;;;74.55;36.75;;;7.20;99.90;;;;;;5047199;28;20045;-65
2023/04/09 03:17:05;;;;;;;75.30;36.67;;;7.20;99.90;;;;;;5063075;28;20093;-64
2023/04/09 03:19:34;;;;;;;76.45;36.95;;;7.20;99.90;;;;;;5063749;28;20093;-65
2023/04/09 03:22:00;;;;;;;78.15;36.13;;;7.20;99.90;;;;;;5063117;28;20032;-64
2023/04/09 03:24:26;;;;;;;75.32;35.33;;;7.20;99.90;;;;;;5065583;28;20032;-64
2023/04/09 03:26:52;;;;;;;85.15;37.20;;;7.20;99.90;;;;;;5066459;28;20507;-65
2023/04/09 03:29:18;;;;;;;72.07;35.80;;;7.20;99.90;;;;;;5067621;28;20043;-65
2023/04/09 03:31:44;;;;;;;74.95;37.30;;;7.20;99.90;;;;;;5064256;28;20097;-65
2023/04/09 03:34:10;;;;;;;74.25;36.30;;;7.20;99.90;;;;;;5063388;28;20127;-64
2023/04/09 03:36:36;;;;;;;73.22;36.08;;;7.20;99.90;;;;;;5064489;28;20048;-64
2023/04/09 03:39:02;;;;;;;74.60;35.95;;;7.20;99.90;;;;;;5066225;28;20048;-64
2023/04/09 03:41:30;;;;;;;68.03;35.28;;;7.20;99.90;;;;;;5066970;28;20553;-63
2023/04/09 03:43:56;;;;;;;70.18;35.60;;;7.20;99.90;;;;;;5083132;28;20434;-65
2023/04/09 03:46:28;;;;;;;71.88;36.60;;;7.20;99.90;;;;;;5084327;28;20040;-65
2023/04/09 03:48:54;;;;;;;69.95;35.75;;;7.20;99.90;;;;;;5050318;28;20036;-65
2023/04/09 03:51:23;;;;;;;64.82;34.35;;;7.20;99.90;;;;;;5084828;28;20364;-64
2023/04/09 03:53:48;;;;;;;73.80;35.60;;;7.20;99.90;;;;;;5071644;28;20142;-65
2023/04/09 03:56:14;;;;;;;73.65;35.33;;;7.30;99.90;;;;;;5066808;28;20391;-64
2023/04/09 03:58:40;;;;;;;69.75;34.17;;;7.30;99.90;;;;;;5066540;28;20479;-64
2023/04/09 04:01:06;;;;;;;73.22;35.00;;;7.30;99.90;;;;;;5066822;28;20057;-65
2023/04/09 04:03:35;;;;;;;73.78;34.35;;;7.30;99.90;;;;;;5068320;28;20369;-65
2023/04/09 04:06:04;;;;;;;73.40;36.72;;;7.30;99.90;;;;;;5065813;28;20051;-64
2023/04/09 04:08:33;;;;;;;71.15;35.63;;;7.30;99.90;;;;;;5066483;28;20145;-64
2023/04/09 04:11:07;;;;;;;73.10;35.60;;;7.30;99.90;;;;;;5067977;28;20048;-65
2023/04/09 04:13:33;;;;;;;78.60;36.72;;;7.30;99.90;;;;;;5067903;28;20052;-65
2023/04/09 04:15:59;;;;;;;73.20;36.20;;;7.30;99.90;;;;;;5067634;28;20458;-63
2023/04/09 04:18:25;;;;;;;76.95;37.85;;;7.30;99.90;;;;;;5100988;28;20240;-64
2023/04/09 04:20:51;;;;;;;81.18;38.40;;;7.30;99.90;;;;;;5059792;28;20045;-65
2023/04/09 04:23:17;;;;;;;83.00;38.13;;;7.20;99.90;;;;;;5066068;28;20033;-65
2023/04/09 04:25:43;;;;;;;79.68;37.03;;;7.20;99.90;;;;;;5066347;28;20048;-65
2023/04/09 04:28:09;;;;;;;77.35;36.45;;;7.20;99.90;;;;;;5066312;28;20499;-64
2023/04/09 04:30:35;;;;;;;80.90;38.78;;;7.20;99.90;;;;;;5049810;28;20047;-64
2023/04/09 04:33:00;;;;;;;82.28;38.38;;;7.20;99.90;;;;;;5080398;28;20044;-65
2023/04/09 04:35:29;;;;;;;91.88;38.97;;;7.20;99.90;;;;;;5086416;28;20040;-65
2023/04/09 04:37:58;;;;;;;85.88;39.25;;;7.20;99.90;;;;;;5095794;28;20047;-65
2023/04/09 04:40:24;;;;;;;81.47;38.90;;;7.20;99.90;;;;;;5049695;28;20541;-64
2023/04/09 04:42:50;;;;;;;90.28;38.65;;;7.10;99.90;;;;;;5066359;28;20369;-64
2023/04/09 04:45:16;;;;;;;82.95;39.85;;;7.10;99.90;;;;;;5049148;28;20047;-65
2023/04/09 04:47:42;;;;;;;87.53;38.97;;;7.10;99.90;;;;;;5051141;28;20464;-66
2023/04/09 04:50:09;;;;;;;81.40;40.58;;;7.10;99.90;;;;;;5048399;28;20040;-64
2023/04/09 04:52:36;;;;;;;88.10;38.97;;;7.00;99.90;;;;;;5067144;28;20048;-64
2023/04/09 04:55:05;;;;;;;82.93;38.47;;;7.00;99.90;;;;;;5066114;28;20075;-65
2023/04/09 04:57:31;;;;;;;86.78;40.05;;;7.00;99.90;;;;;;5048189;28;20462;-64
2023/04/09 04:59:57;;;;;;;88.47;40.95;;;7.00;99.90;;;;;;5065743;28;20137;-65
2023/04/09 05:02:23;;;;;;;89.97;40.95;;;7.00;99.90;;;;;;5065302;28;20059;-64
2023/04/09 05:04:49;;;;;;;85.70;40.90;;;7.00;99.90;;;;;;5048937;28;20048;-63
2023/04/09 05:07:15;;;;;;;89.07;42.78;;;7.00;99.90;;;;;;5065159;28;20063;-64
2023/04/09 05:09:43;;;;;;;88.28;39.40;;;7.10;99.90;;;;;;5085892;28;20038;-64
2023/04/09 05:12:09;;;;;;;84.35;39.72;;;7.10;99.90;;;;;;5069258;28;20043;-64
2023/04/09 05:14:35;;;;;;;94.68;42.40;;;7.10;99.90;;;;;;5069028;28;20126;-64
2023/04/09 05:17:01;;;;;;;98.28;42.55;;;7.10;99.90;;;;;;5079172;28;20123;-64
2023/04/09 05:19:29;;;;;;;89.60;43.30;;;7.10;99.90;;;;;;5085375;28;20047;-64
2023/04/09 05:21:58;;;;;;;86.80;41.95;;;7.10;99.90;;;;;;5068861;28;20050;-64
2023/04/09 05:24:25;;;;;;;89.60;41.55;;;7.10;99.90;;;;;;5065816;28;20491;-64
2023/04/09 05:26:51;;;;;;;92.95;42.95;;;7.20;99.90;;;;;;5065061;28;20247;-63
2023/04/09 05:29:16;;;;;;;92.93;42.72;;;7.20;99.90;;;;;;5065199;28;20048;-64
2023/04/09 05:31:45;;;;;;;90.13;42.40;;;7.20;99.90;;;;;;5064674;28;20047;-65
2023/04/09 05:34:11;;;;;;;77.50;38.28;;;7.20;99.90;;;;;;5066205;28;20040;-64
2023/04/09 05:36:37;;;;;;;67.90;35.28;;;7.20;99.90;;;;;;5048173;28;20051;-64
2023/04/09 05:39:03;;;;;;;66.60;36.42;;;7.30;99.90;;;;;;5048298;28;20137;-64
2023/04/09 05:41:29;;;;;;;71.15;36.72;;;7.30;99.90;;;;;;5064931;28;20044;-64
2023/04/09 05:43:55;;;;;;;65.35;34.95;;;7.30;99.90;;;;;;5065998;28;20461;-64
2023/04/09 05:46:21;;;;;;;55.55;30.23;;;7.30;99.90;;;;;;5064415;28;20044;-64
2023/04/09 05:48:47;;;;;;;61.03;32.47;;;7.30;99.90;;;;;;5065843;28;20032;-64
2023/04/09 05:51:14;;;;;;;58.10;32.38;;;7.40;99.90;;;;;;5065608;28;20483;-63
2023/04/09 05:53:40;;;;;;;54.17;29.65;;;7.40;99.90;;;;;;5064415;28;20102;-64
2023/04/09 05:56:14;;;;;;;56.85;29.63;;;7.40;99.90;;;;;;5047579;28;20036;-64
2023/04/09 05:58:40;;;;;;;55.30;27.67;;;7.40;99.90;;;;;;5064367;28;20039;-64
2023/04/09 06:01:06;;;;;;;54.10;29.83;;;7.40;99.90;;;;;;5063653;28;20135;-65
2023/04/09 06:03:37;;;;;;;50.83;28.40;;;7.40;99.90;;;;;;5064157;28;20083;-65
2023/04/09 06:06:18;;;;;;;53.63;30.05;;;7.50;99.90;;;;;;5063759;28;20048;-64
2023/04/09 06:08:44;;;;;;;50.72;28.95;;;7.50;99.90;;;;;;5076682;28;20048;-64
2023/04/09 06:11:11;;;;;;;56.10;30.08;;;7.50;99.90;;;;;;5085825;28;20047;-65
2023/04/09 06:13:39;;;;;;;58.97;31.17;;;7.50;99.90;;;;;;5072073;28;20083;-64
2023/04/09 06:16:06;;;;;;;59.50;33.35;;;7.50;99.90;;;;;;5063748;28;20283;-64
2023/04/09 06:18:32;;;;;;;63.22;32.85;;;7.50;99.90;;;;;;5047643;28;20052;-64
2023/04/09 06:21:10;;;;;;;69.13;37.35;;;7.50;99.90;;;;;;5064253;28;20040;-63
2023/04/09 06:23:36;;;;;;;73.82;39.00;;;7.50;99.90;;;;;;5072922;28;20460;-64
2023/04/09 06:26:04;;;;;;;80.72;39.78;;;7.60;99.90;;;;;;5063558;28;20158;-64
2023/04/09 06:28:31;;;;;;;79.38;41.13;;;7.60;99.90;;;;;;5063809;28;20039;-64
2023/04/09 06:30:57;;;;;;;72.28;38.05;;;7.60;99.90;;;;;;5046869;28;20111;-63
2023/04/09 06:33:23;;;;;;;79.00;38.28;;;7.70;99.90;;;;;;5065798;28;20509;-63
2023/04/09 06:35:49;;;;;;;63.70;34.85;;;7.70;99.90;;;;;;5066527;28;20036;-64
2023/04/09 06:38:16;;;;;;;63.75;34.97;;;7.70;99.90;;;;;;5057713;28;20042;-63
2023/04/09 06:40:42;;;;;;;74.90;38.17;;;7.70;99.90;;;;;;5063959;28;20055;-64
2023/04/09 06:43:08;;;;;;;62.63;32.95;;;7.70;99.90;;;;;;5046909;28;20040;-66
2023/04/09 06:45:34;;;;;;;60.05;32.05;;;7.70;99.90;;;;;;5063383;28;20047;-65
2023/04/09 06:48:00;;;;;;;57.63;31.95;;;7.70;99.90;;;;;;5048612;28;20047;-64
2023/04/09 06:50:26;;;;;;;61.92;31.77;;;7.70;99.90;;;;;;5063994;28;20091;-65
2023/04/09 06:52:52;;;;;;;58.78;32.58;;;7.70;99.90;;;;;;5063448;28;20040;-63
2023/04/09 06:55:18;;;;;;;62.33;34.25;;;7.70;99.90;;;;;;5047168;28;20487;-64
2023/04/09 06:57:44;;;;;;;62.08;33.45;;;7.70;99.90;;;;;;5063447;28;20174;-63
2023/04/09 07:00:11;;;;;;;69.55;36.30;;;7.80;99.90;;;;;;5080415;28;20059;-62
2023/04/09 07:02:37;;;;;;;70.15;37.17;;;7.80;99.90;;;;;;5064540;28;20044;-64
2023/04/09 07:05:03;;;;;;;63.83;34.50;;;7.90;99.90;;;;;;5063641;28;20067;-64
2023/04/09 07:07:29;;;;;;;62.15;35.22;;;8.10;99.90;;;;;;5063215;28;20040;-63
2023/04/09 07:09:55;;;;;;;61.50;34.08;;;8.30;99.90;;;;;;5065178;28;20094;-64
2023/04/09 07:12:30;;;;;;;62.33;34.28;;;8.50;99.90;;;;;;5063212;28;20052;-64
2023/04/09 07:15:01;;;;;;;63.15;34.47;;;8.60;99.90;;;;;;5066462;28;20148;-63
2023/04/09 07:17:27;;;;;;;62.53;33.35;;;8.70;99.90;;;;;;5075691;28;20059;-65
2023/04/09 07:19:53;;;;;;;61.78;32.50;;;8.80;99.90;;;;;;5087848;28;20637;-64
2023/04/09 07:22:24;;;;;;;62.75;34.13;;;9.00;99.90;;;;;;5069493;28;20594;-65
2023/04/09 07:24:53;;;;;;;59.28;32.70;;;9.30;99.90;;;;;;5068216;28;20044;-65
2023/04/09 07:27:24;;;;;;;59.85;32.42;;;9.30;99.90;;;;;;5068547;28;20058;-65
2023/04/09 07:29:50;;;;;;;59.60;32.78;;;9.30;99.90;;;;;;5066908;28;20152;-64
2023/04/09 07:32:16;;;;;;;57.63;31.77;;;9.40;99.90;;;;;;5066779;28;20507;-63
2023/04/09 07:34:43;;;;;;;52.90;29.60;;;9.40;99.90;;;;;;5050167;28;20044;-64
2023/04/09 07:37:09;;;;;;;58.35;31.55;;;9.40;99.90;;;;;;5068051;28;20458;-63
2023/04/09 07:39:35;;;;;;;56.13;29.98;;;9.50;99.90;;;;;;5050152;28;20119;-64
2023/04/09 07:42:04;;;;;;;51.70;28.55;;;9.40;99.90;;;;;;5067231;28;20143;-64
2023/04/09 07:44:37;;;;;;;53.83;28.98;;;9.50;99.90;;;;;;5050494;28;20045;-63
2023/04/09 07:47:04;;;;;;;57.90;31.10;;;9.60;99.90;;;;;;5085089;28;20067;-64
2023/04/09 07:49:34;;;;;;;53.10;30.85;;;9.70;99.90;;;;;;5086936;28;20092;-64
2023/04/09 07:52:00;;;;;;;51.10;30.05;;;9.70;99.90;;;;;;5080042;28;20414;-64
2023/04/09 07:54:30;;;;;;;51.70;30.20;;;9.70;99.90;;;;;;5066617;28;20040;-65
2023/04/09 07:56:57;;;;;;;56.67;31.17;;;9.90;99.90;;;;;;5066300;28;20040;-64
2023/04/09 07:59:23;;;;;;;55.35;29.48;;;10.00;99.90;;;;;;5066760;28;20160;-65
2023/04/09 08:01:49;;;;;;;51.75;29.90;;;10.00;99.90;;;;;;5069790;28;20039;-63
2023/04/09 08:04:16;;;;;;;52.88;29.77;;;9.90;99.90;;;;;;5070403;28;20405;-64
2023/04/09 08:06:42;;;;;;;53.53;30.65;;;10.00;99.90;;;;;;5085956;28;20052;-64
2023/04/09 08:09:08;;;;;;;48.65;28.08;;;10.00;99.90;;;;;;5053800;28;20067;-63
2023/04/09 08:11:34;;;;;;;54.33;30.70;;;9.90;99.90;;;;;;5057181;28;20050;-63
2023/04/09 08:14:03;;;;;;;50.97;29.20;;;9.90;99.90;;;;;;5080995;28;20044;-64
2023/04/09 08:16:29;;;;;;;49.83;28.95;;;9.90;99.90;;;;;;5065796;28;20045;-64
2023/04/09 08:18:55;;;;;;;49.15;30.27;;;9.90;99.90;;;;;;5069852;28;20055;-68
2023/04/09 08:21:22;;;;;;;48.55;27.73;;;10.30;99.90;;;;;;5080806;28;20125;-64
2023/04/09 08:23:48;;;;;;;51.08;28.70;;;10.30;99.90;;;;;;5084447;28;20036;-64
2023/04/09 08:26:13;;;;;;;51.38;29.67;;;10.40;99.90;;;;;;5073006;28;20067;-64
2023/04/09 08:28:40;;;;;;;45.78;27.25;;;10.50;99.90;;;;;;5075772;28;20032;-64
2023/04/09 08:31:08;;;;;;;43.70;25.52;;;11.00;99.90;;;;;;5064209;28;20032;-65
2023/04/09 08:33:34;;;;;;;42.75;25.83;;;11.60;99.90;;;;;;5069689;28;20483;-63
2023/04/09 08:36:00;;;;;;;46.70;25.45;;;11.70;99.90;;;;;;5087976;28;20048;-63
2023/04/09 08:38:26;;;;;;;42.15;27.13;;;11.60;99.90;;;;;;5072385;28;20289;-67
2023/04/09 08:40:52;;;;;;;43.90;26.20;;;11.90;99.90;;;;;;5071850;28;20044;-64
2023/04/09 08:43:21;;;;;;;47.85;28.35;;;12.10;99.90;;;;;;5071736;28;20032;-65
2023/04/09 08:45:47;;;;;;;42.13;25.63;;;12.30;99.90;;;;;;5074531;28;20063;-64
2023/04/09 08:48:14;;;;;;;46.28;28.10;;;12.20;99.90;;;;;;5072554;28;20559;-65
2023/04/09 08:50:40;;;;;;;44.10;27.83;;;11.90;99.90;;;;;;5068021;28;20544;-63
2023/04/09 08:53:09;;;;;;;47.50;29.00;;;11.80;99.90;;;;;;5068860;28;20044;-64
2023/04/09 08:55:36;;;;;;;47.63;29.00;;;11.80;99.90;;;;;;5061111;28;20495;-65
2023/04/09 08:58:09;;;;;;;47.72;28.98;;;11.70;99.90;;;;;;5076011;28;20044;-65
2023/04/09 09:00:35;;;;;;;46.40;28.17;;;11.60;99.90;;;;;;5068282;28;20067;-65
2023/04/09 09:03:10;;;;;;;51.38;29.55;;;11.80;99.90;;;;;;5053417;28;20052;-64
2023/04/09 09:05:36;;;;;;;48.03;29.30;;;11.90;99.90;;;;;;5086133;28;20044;-65
2023/04/09 09:08:02;;;;;;;47.17;29.02;;;11.80;99.90;;;;;;5084181;28;20047;-64
2023/04/09 09:10:42;;;;;;;45.28;29.10;;;11.80;99.90;;;;;;5051408;28;20153;-64
2023/04/09 09:13:21;;;;;;;49.97;29.50;;;11.80;99.90;;;;;;5083593;28;20040;-64
2023/04/09 09:15:49;;;;;;;50.50;29.15;;;11.80;99.90;;;;;;5072228;28;20054;-64
2023/04/09 09:18:17;;;;;;;51.33;29.85;;;11.80;99.90;;;;;;5061661;28;20047;-63
2023/04/09 09:20:43;;;;;;;50.08;28.35;;;11.80;99.90;;;;;;5088481;28;20043;-64
2023/04/09 09:23:09;;;;;;;44.05;27.52;;;11.80;99.90;;;;;;5059859;28;20052;-65
2023/04/09 09:25:42;;;;;;;45.50;28.92;;;11.80;99.90;;;;;;5064700;28;20417;-65
2023/04/09 09:28:11;;;;;;;48.13;29.45;;;11.80;99.90;;;;;;5066417;28;20519;-64
2023/04/09 09:30:39;;;;;;;47.08;28.00;;;11.80;99.90;;;;;;5065963;28;20051;-65
2023/04/09 09:33:10;;;;;;;49.03;29.50;;;11.80;99.90;;;;;;5065190;28;20048;-64
2023/04/09 09:35:50;;;;;;;49.05;28.83;;;11.90;99.90;;;;;;5048237;28;20098;-65
2023/04/09 09:38:16;;;;;;;47.38;29.25;;;12.00;99.90;;;;;;5064375;28;20044;-64
2023/04/09 09:40:46;;;;;;;49.70;28.73;;;12.00;99.90;;;;;;5048125;28;20139;-63
2023/04/09 09:43:13;;;;;;;45.08;28.48;;;12.10;99.90;;;;;;5064852;28;20048;-65
2023/04/09 09:45:40;;;;;;;45.97;28.20;;;12.10;99.90;;;;;;5064645;28;20040;-65
2023/04/09 09:48:09;;;;;;;42.63;25.55;;;12.20;99.90;;;;;;5047717;28;20120;-63
2023/04/09 09:50:36;;;;;;;44.30;27.50;;;12.40;99.90;;;;;;5065611;28;20473;-64
2023/04/09 09:53:06;;;;;;;40.75;25.20;;;12.70;99.90;;;;;;5064356;28;20089;-64
2023/04/09 09:55:36;;;;;;;48.30;27.85;;;13.30;99.90;;;;;;5081236;28;20043;-65
2023/04/09 09:58:23;;;;;;;43.28;26.73;;;14.10;99.90;;;;;;5064491;28;20070;-64
2023/04/09 10:00:51;;;;;;;39.50;26.67;;;14.90;99.90;;;;;;5064248;28;20147;-62
2023/04/09 10:03:24;;;;;;;40.50;25.88;;;15.70;99.90;;;;;;5070461;28;20113;-65
2023/04/09 10:05:50;;;;;;;36.60;25.02;;;16.20;99.90;;;;;;5080808;28;20036;-64
2023/04/09 10:08:17;;;;;;;37.95;26.58;;;16.40;98.60;;;;;;5065562;28;20032;-62
2023/04/09 10:10:43;;;;;;;39.83;26.45;;;16.20;97.70;;;;;;5085597;28;20040;-65
2023/04/09 10:13:31;;;;;;;42.25;27.48;;;15.70;98.00;;;;;;5084614;28;20052;-65
2023/04/09 10:15:57;;;;;;;38.40;26.42;;;15.30;98.60;;;;;;5064403;28;20557;-65
2023/04/09 10:18:24;;;;;;;39.40;25.98;;;15.30;99.10;;;;;;5067403;28;20146;-66
2023/04/09 10:21:06;;;;;;;41.15;26.50;;;15.40;99.00;;;;;;5064330;28;20160;-64
2023/04/09 10:23:40;;;;;;;37.35;26.15;;;15.50;99.00;;;;;;5070990;28;20044;-65
2023/04/09 10:26:07;;;;;;;40.50;26.05;;;15.60;98.80;;;;;;5083942;28;20151;-63
2023/04/09 10:28:33;;;;;;;39.33;25.58;;;15.80;98.10;;;;;;5083267;28;20040;-65
2023/04/09 10:31:04;;;;;;;37.53;25.83;;;15.80;97.40;;;;;;5063509;28;20044;-64
2023/04/09 10:33:34;;;;;;;40.00;27.42;;;15.60;97.80;;;;;;5074153;28;20044;-64
2023/04/09 10:36:04;;;;;;;39.03;26.63;;;15.40;97.70;;;;;;5084165;28;20051;-65
2023/04/09 10:38:45;;;;;;;39.55;26.30;;;15.50;98.30;;;;;;5056898;28;20044;-65
2023/04/09 10:41:20;;;;;;;38.60;25.77;;;15.70;97.50;;;;;;5064713;28;20092;-65
2023/04/09 10:43:46;;;;;;;39.50;26.35;;;16.00;97.70;;;;;;5076081;28;20076;-64
2023/04/09 10:46:33;;;;;;;37.17;25.38;;;16.20;97.40;;;;;;5076022;28;20096;-63
2023/04/09 10:49:15;;;;;;;36.55;23.90;;;16.60;93.80;;;;;;5049256;28;20051;-64
2023/04/09 10:51:41;;;;;;;37.45;24.58;;;16.80;95.30;;;;;;5068066;28;20091;-65
2023/04/09 10:54:46;;;;;;;35.42;25.48;;;17.00;95.40;;;;;;5051326;28;20048;-64
2023/04/09 10:57:14;;;;;;;38.00;26.20;;;17.50;94.30;;;;;;5050720;28;20057;-64
2023/04/09 10:59:50;;;;;;;34.85;23.83;;;17.60;94.20;;;;;;5067508;28;20056;-64
2023/04/09 11:03:09;;;;;;;35.13;25.40;;;17.70;94.00;;;;;;5067373;28;20040;-64
2023/04/09 11:05:39;;;;;;;34.72;24.10;;;17.60;93.50;;;;;;4992778;28;20081;-64
2023/04/09 11:08:11;;;;;;;37.50;25.67;;;17.70;93.40;;;;;;5066060;28;20044;-65
2023/04/09 11:10:39;;;;;;;31.65;21.15;;;17.80;93.30;;;;;;5069499;28;20610;-61
2023/04/09 11:13:06;;;;;;;29.35;21.17;;;18.00;92.90;;;;;;5067392;28;20074;-63
2023/04/09 11:15:35;;;;;;;34.00;25.23;;;18.30;92.00;;;;;;5068373;28;20091;-64
2023/04/09 11:18:02;;;;;;;34.78;24.20;;;18.50;91.00;;;;;;5067465;28;20550;-65
2023/04/09 11:20:29;;;;;;;33.70;23.85;;;18.30;90.20;;;;;;5067276;28;20045;-64
2023/04/09 11:22:59;;;;;;;34.28;24.30;;;17.60;90.20;;;;;;5066993;28;20068;-65
2023/04/09 11:25:27;;;;;;;33.28;24.10;;;17.00;91.40;;;;;;5067095;28;20049;-64
2023/04/09 11:27:53;;;;;;;30.52;22.10;;;16.70;92.40;;;;;;5067238;28;20385;-64
2023/04/09 11:30:19;;;;;;;32.85;22.00;;;16.90;92.30;;;;;;5068593;28;20086;-64
2023/04/09 11:32:46;;;;;;;33.45;21.92;;;16.90;91.80;;;;;;5067167;28;20047;-63
2023/04/09 11:35:20;;;;;;;34.08;22.45;;;16.50;91.70;;;;;;5067298;28;20146;-65
2023/04/09 11:37:47;;;;;;;32.28;21.90;;;16.10;92.10;;;;;;5050081;28;20047;-64
2023/04/09 11:40:25;;;;;;;29.92;21.75;;;16.00;93.80;;;;;;5067108;28;20048;-65
2023/04/09 11:42:55;;;;;;;33.58;21.65;;;16.40;92.80;;;;;;5068467;28;20032;-64
2023/04/09 11:45:26;;;;;;;29.42;20.23;;;16.70;93.50;;;;;;5067016;28;20324;-64
2023/04/09 11:47:52;;;;;;;29.55;21.55;;;17.20;91.80;;;;;;5066488;28;20554;-64
2023/04/09 11:50:19;;;;;;;29.90;20.52;;;17.80;91.30;;;;;;5050247;28;20115;-65
2023/04/09 11:52:45;;;;;;;29.63;20.35;;;18.00;90.00;;;;;;5052299;28;20115;-63
2023/04/09 11:55:28;;;;;;;30.08;20.88;;;17.70;89.40;;;;;;5069817;28;20055;-65
2023/04/09 11:58:01;;;;;;;29.77;20.83;;;17.20;90.00;;;;;;5081872;28;20044;-64
2023/04/09 12:00:28;;;;;;;32.03;22.43;;;17.00;90.10;;;;;;5066125;28;20503;-62
2023/04/09 12:03:04;;;;;;;26.77;19.23;;;17.40;90.70;;;;;;5068664;28;20068;-63
2023/04/09 12:05:32;;;;;;;30.40;20.58;;;17.70;88.50;;;;;;5066509;28;20045;-63
2023/04/09 12:08:06;;;;;;;27.15;18.42;;;17.70;88.60;;;;;;5066245;28;20702;-64
2023/04/09 12:10:34;;;;;;;25.55;16.92;;;17.40;87.60;;;;;;5067917;28;20045;-65
2023/04/09 12:13:09;;;;;;;28.75;18.98;;;17.50;88.60;;;;;;5066359;28;20487;-65
2023/04/09 12:15:42;;;;;;;28.80;20.10;;;17.70;86.40;;;;;;5050202;28;20407;-63
2023/04/09 12:18:10;;;;;;;26.83;19.63;;;17.60;87.40;;;;;;5068745;28;20071;-63
2023/04/09 12:20:42;;;;;;;28.33;19.60;;;17.70;85.80;;;;;;5049387;28;20075;-65
2023/04/09 12:23:09;;;;;;;27.60;18.50;;;17.60;86.50;;;;;;5066217;28;20037;-64
2023/04/09 12:25:38;;;;;;;24.75;17.65;;;17.70;86.50;;;;;;5065978;28;20040;-65
2023/04/09 12:28:05;;;;;;;42.28;20.52;;;17.50;84.90;;;;;;5067617;28;20133;-65
2023/04/09 12:30:32;;;;;;;28.60;18.85;;;17.40;86.80;;;;;;5049837;28;20346;-65
2023/04/09 12:32:58;;;;;;;24.92;18.35;;;17.20;86.40;;;;;;5065836;28;20498;-64
2023/04/09 12:35:24;;;;;;;28.90;19.23;;;16.80;86.10;;;;;;5065786;28;20127;-64
2023/04/09 12:37:50;;;;;;;27.52;18.23;;;16.50;86.30;;;;;;5066032;28;20510;-64
2023/04/09 12:40:18;;;;;;;26.02;17.73;;;16.30;87.00;;;;;;5049647;28;20329;-64